Time;durP1;ratioP1;P1;durP2;ratioP2;P2;SDS_P1;SDS_P2;PMS_P1;PMS_P2;Temp;Humidity;BMP_temperature;BMP_pressure;BME280_temperature;BME280_humidity;BME280_pressure;Samples;Min_cycle;Max_cycle;Signal;HPM_P1;HPM_P2
2023/06/15 00:01:18;;;;;;;4.50;3.17;;;;;;;;;;4915127;29;20214;-80
2023/06/15 00:03:45;;;;;;;3.90;3.57;;;;;;;;;;4915122;29;20255;-80
2023/06/15 00:06:11;;;;;;;3.87;3.50;;;;;;;;;;4916819;29;20195;-79
2023/06/15 00:08:37;;;;;;;4.93;3.43;;;;;;;;;;4927898;29;20186;-80
2023/06/15 00:11:03;;;;;;;3.70;3.40;;;;;;;;;;4929242;29;20209;-80
2023/06/15 00:13:30;;;;;;;3.50;3.20;;;;;;;;;;4926332;29;20193;-79
2023/06/15 00:15:57;;;;;;;4.10;3.27;;;;;;;;;;4921112;29;20186;-80
2023/06/15 00:18:23;;;;;;;3.50;3.20;;;;;;;;;;4925382;29;20296;-80
2023/06/15 00:20:49;;;;;;;3.70;3.40;;;;;;;;;;4933752;29;20186;-80
2023/06/15 00:23:17;;;;;;;4.63;3.60;;;;;;;;;;4924328;29;20197;-79
2023/06/15 00:25:43;;;;;;;4.17;3.30;;;;;;;;;;4928886;29;20186;-80
2023/06/15 00:28:09;;;;;;;3.80;3.40;;;;;;;;;;4925186;29;20182;-80
2023/06/15 00:30:35;;;;;;;3.83;3.10;;;;;;;;;;4918408;29;20263;-80
2023/06/15 00:33:05;;;;;;;3.80;3.40;;;;;;;;;;4924972;29;20581;-80
2023/06/15 00:35:31;;;;;;;4.13;3.33;;;;;;;;;;4905549;29;20187;-80
2023/06/15 00:37:57;;;;;;;4.60;3.10;;;;;;;;;;4924218;29;20209;-80
2023/06/15 00:40:23;;;;;;;5.67;3.37;;;;;;;;;;4927358;29;20186;-80
2023/06/15 00:42:49;;;;;;;5.03;3.60;;;;;;;;;;4923439;29;20269;-80
2023/06/15 00:45:16;;;;;;;4.70;3.40;;;;;;;;;;4918758;29;20178;-79
2023/06/15 00:47:42;;;;;;;3.57;3.27;;;;;;;;;;4916186;29;20183;-80
2023/06/15 00:50:09;;;;;;;4.07;3.33;;;;;;;;;;4914768;29;20210;-80
2023/06/15 00:52:37;;;;;;;3.30;3.00;;;;;;;;;;4914835;29;20582;-80
2023/06/15 00:55:05;;;;;;;5.33;3.50;;;;;;;;;;4923390;29;20187;-80
2023/06/15 00:57:32;;;;;;;4.10;3.53;;;;;;;;;;4924016;29;20185;-79
2023/06/15 00:59:59;;;;;;;3.73;3.43;;;;;;;;;;4921908;29;20522;-80
2023/06/15 01:02:26;;;;;;;4.40;3.00;;;;;;;;;;4923989;29;20225;-79
2023/06/15 01:04:55;;;;;;;4.10;3.30;;;;;;;;;;4920316;29;20179;-79
2023/06/15 01:07:27;;;;;;;5.20;3.80;;;;;;;;;;4921079;29;20193;-80
2023/06/15 01:09:55;;;;;;;3.20;3.00;;;;;;;;;;4906304;29;20181;-80
2023/06/15 01:12:21;;;;;;;4.00;2.97;;;;;;;;;;4916468;29;20282;-80
2023/06/15 01:14:47;;;;;;;3.43;3.00;;;;;;;;;;4916460;29;20241;-80
2023/06/15 01:17:15;;;;;;;6.03;3.40;;;;;;;;;;4920516;29;20189;-80
2023/06/15 01:19:53;;;;;;;3.40;3.03;;;;;;;;;;4917829;29;20206;-79
2023/06/15 01:22:45;;;;;;;3.90;3.10;;;;;;;;;;4921658;29;20217;-79
2023/06/15 01:25:33;;;;;;;4.13;3.10;;;;;;;;;;4922649;29;20504;-79
2023/06/15 01:28:01;;;;;;;4.90;3.20;;;;;;;;;;4925215;29;20202;-80
2023/06/15 01:30:33;;;;;;;3.50;3.20;;;;;;;;;;4914479;29;20197;-79
2023/06/15 01:32:59;;;;;;;3.87;3.10;;;;;;;;;;4927029;29;20202;-80
2023/06/15 01:35:25;;;;;;;4.50;3.20;;;;;;;;;;4901611;29;20199;-80
2023/06/15 01:37:51;;;;;;;3.67;3.30;;;;;;;;;;4931343;29;20257;-79
2023/06/15 01:40:18;;;;;;;3.70;3.17;;;;;;;;;;4919772;29;20217;-79
2023/06/15 01:42:45;;;;;;;3.60;3.30;;;;;;;;;;4931000;29;20210;-80
2023/06/15 01:45:11;;;;;;;3.40;3.10;;;;;;;;;;4932672;29;20635;-80
2023/06/15 01:47:39;;;;;;;3.90;3.50;;;;;;;;;;4914517;29;20175;-80
2023/06/15 01:50:06;;;;;;;3.77;3.47;;;;;;;;;;4925073;29;20271;-80
2023/06/15 01:52:32;;;;;;;3.80;3.00;;;;;;;;;;4932135;29;20209;-80
2023/06/15 01:54:59;;;;;;;4.40;3.17;;;;;;;;;;4931153;29;20186;-79
2023/06/15 01:57:25;;;;;;;3.47;3.17;;;;;;;;;;4914120;29;20195;-80
2023/06/15 01:59:54;;;;;;;3.83;3.47;;;;;;;;;;4913618;29;20187;-80
2023/06/15 02:02:23;;;;;;;3.70;3.40;;;;;;;;;;4913129;29;20717;-79
2023/06/15 02:04:50;;;;;;;3.43;3.07;;;;;;;;;;4898625;29;20341;-80
2023/06/15 02:07:16;;;;;;;3.30;3.00;;;;;;;;;;4898983;29;20182;-79
2023/06/15 02:09:43;;;;;;;4.57;3.37;;;;;;;;;;4914199;29;20194;-80
2023/06/15 02:12:09;;;;;;;3.33;3.03;;;;;;;;;;4935414;29;20201;-79
2023/06/15 02:14:35;;;;;;;3.53;3.00;;;;;;;;;;4936678;29;20327;-79
2023/06/15 02:17:02;;;;;;;3.80;3.20;;;;;;;;;;4907643;29;20241;-79
2023/06/15 02:19:28;;;;;;;3.77;3.30;;;;;;;;;;4918894;29;20290;-78
2023/06/15 02:21:55;;;;;;;3.30;2.77;;;;;;;;;;4917061;29;20198;-79
2023/06/15 02:24:21;;;;;;;2.90;2.70;;;;;;;;;;4901401;29;20185;-79
2023/06/15 02:26:47;;;;;;;6.07;3.17;;;;;;;;;;4901058;29;20215;-79
2023/06/15 02:29:14;;;;;;;3.50;3.20;;;;;;;;;;4925367;29;20279;-79
2023/06/15 02:31:40;;;;;;;3.77;3.20;;;;;;;;;;4919616;29;20233;-79
2023/06/15 02:34:06;;;;;;;3.50;3.20;;;;;;;;;;4918998;29;20186;-79
2023/06/15 02:36:34;;;;;;;4.57;3.20;;;;;;;;;;4930398;29;20676;-79
2023/06/15 02:39:02;;;;;;;3.40;3.10;;;;;;;;;;4944981;29;20242;-79
2023/06/15 02:41:29;;;;;;;3.17;2.90;;;;;;;;;;4934656;29;20576;-79
2023/06/15 02:43:56;;;;;;;3.40;3.10;;;;;;;;;;4933158;29;20190;-79
2023/06/15 02:46:23;;;;;;;3.50;3.20;;;;;;;;;;4916090;29;20186;-79
2023/06/15 02:48:51;;;;;;;3.20;3.00;;;;;;;;;;4924473;29;20249;-79
2023/06/15 02:51:20;;;;;;;3.40;3.10;;;;;;;;;;4933846;29;20661;-78
2023/06/15 02:53:47;;;;;;;3.70;3.40;;;;;;;;;;4912193;29;20215;-79
2023/06/15 02:56:18;;;;;;;3.33;3.00;;;;;;;;;;4934594;29;20251;-78
2023/06/15 02:58:48;;;;;;;3.40;3.10;;;;;;;;;;4914155;29;20737;-79
2023/06/15 03:01:21;;;;;;;3.03;2.73;;;;;;;;;;4921856;29;20210;-78
2023/06/15 03:03:54;;;;;;;3.80;3.03;;;;;;;;;;4934548;29;20209;-79
2023/06/15 03:06:24;;;;;;;3.33;3.00;;;;;;;;;;4927725;29;20663;-79
2023/06/15 03:08:51;;;;;;;2.90;2.70;;;;;;;;;;4932478;29;20776;-79
2023/06/15 03:11:22;;;;;;;3.30;3.00;;;;;;;;;;4924930;29;20629;-79
2023/06/15 03:13:49;;;;;;;3.17;2.97;;;;;;;;;;4929528;29;20186;-79
2023/06/15 03:16:15;;;;;;;3.47;3.13;;;;;;;;;;4930945;29;20186;-79
2023/06/15 03:18:43;;;;;;;3.50;3.20;;;;;;;;;;4933883;29;20652;-79
2023/06/15 03:21:09;;;;;;;4.00;3.20;;;;;;;;;;4917746;29;20198;-79
2023/06/15 03:23:38;;;;;;;3.30;3.00;;;;;;;;;;4918555;29;20490;-79
2023/06/15 03:26:06;;;;;;;4.23;3.20;;;;;;;;;;4918598;29;20273;-79
2023/06/15 03:28:37;;;;;;;3.40;3.10;;;;;;;;;;4934215;29;20178;-79
2023/06/15 03:31:07;;;;;;;4.30;3.30;;;;;;;;;;4935476;29;20194;-79
2023/06/15 03:33:33;;;;;;;4.93;3.30;;;;;;;;;;4935592;29;20192;-79
2023/06/15 03:36:01;;;;;;;3.40;3.10;;;;;;;;;;4934099;29;20194;-79
2023/06/15 03:38:29;;;;;;;3.33;2.90;;;;;;;;;;4934048;29;20297;-79
2023/06/15 03:40:56;;;;;;;4.97;3.23;;;;;;;;;;4934201;29;20209;-79
2023/06/15 03:43:22;;;;;;;3.30;3.00;;;;;;;;;;4933744;29;20217;-79
2023/06/15 03:45:48;;;;;;;3.40;3.10;;;;;;;;;;4933893;29;20184;-78
2023/06/15 03:48:14;;;;;;;3.50;3.20;;;;;;;;;;4933677;29;20184;-79
2023/06/15 03:50:41;;;;;;;4.17;3.77;;;;;;;;;;4934049;29;20261;-79
2023/06/15 03:53:08;;;;;;;3.67;3.20;;;;;;;;;;4922521;29;20210;-78
2023/06/15 03:55:34;;;;;;;3.60;3.30;;;;;;;;;;4923337;29;20201;-78
2023/06/15 03:58:00;;;;;;;3.87;3.47;;;;;;;;;;4924690;29;20749;-78
2023/06/15 04:00:27;;;;;;;5.93;3.73;;;;;;;;;;4901279;29;20198;-78
2023/06/15 04:02:54;;;;;;;4.53;4.13;;;;;;;;;;4926226;29;20206;-78
2023/06/15 04:05:22;;;;;;;4.70;4.20;;;;;;;;;;4928132;29;20271;-78
2023/06/15 04:07:51;;;;;;;5.80;4.40;;;;;;;;;;4919404;29;20186;-78
2023/06/15 04:10:17;;;;;;;4.83;4.43;;;;;;;;;;4924631;29;20193;-78
2023/06/15 04:12:44;;;;;;;4.60;4.20;;;;;;;;;;4918977;29;20602;-78
2023/06/15 04:15:11;;;;;;;4.60;4.20;;;;;;;;;;4910894;29;20178;-78
2023/06/15 04:17:39;;;;;;;4.33;3.93;;;;;;;;;;4925185;29;20186;-78
2023/06/15 04:20:06;;;;;;;4.37;3.97;;;;;;;;;;4933986;29;20553;-78
2023/06/15 04:22:34;;;;;;;4.77;4.00;;;;;;;;;;4933999;29;20198;-78
2023/06/15 04:25:00;;;;;;;5.43;4.53;;;;;;;;;;4926083;29;20214;-78
2023/06/15 04:27:27;;;;;;;4.60;4.10;;;;;;;;;;4892742;29;20623;-78
2023/06/15 04:29:54;;;;;;;5.00;4.50;;;;;;;;;;4919287;29;20196;-78
2023/06/15 04:32:25;;;;;;;4.30;3.90;;;;;;;;;;4922319;29;20590;-78
2023/06/15 04:34:52;;;;;;;5.57;4.13;;;;;;;;;;4915669;29;20187;-78
2023/06/15 04:37:19;;;;;;;4.57;4.17;;;;;;;;;;4933272;29;20226;-78
2023/06/15 04:39:46;;;;;;;4.90;4.50;;;;;;;;;;4912636;29;20599;-78
2023/06/15 04:42:13;;;;;;;5.27;4.40;;;;;;;;;;4948299;29;20206;-77
2023/06/15 04:44:40;;;;;;;4.90;4.40;;;;;;;;;;4933935;29;20827;-78
2023/06/15 04:47:06;;;;;;;7.23;4.70;;;;;;;;;;4934615;29;20189;-78
2023/06/15 04:49:32;;;;;;;4.83;4.30;;;;;;;;;;4917177;29;20184;-76
2023/06/15 04:51:58;;;;;;;5.03;4.20;;;;;;;;;;4934081;29;20237;-75
2023/06/15 04:54:25;;;;;;;7.40;4.70;;;;;;;;;;4917104;29;20639;-76
2023/06/15 04:56:51;;;;;;;5.20;4.50;;;;;;;;;;4932888;29;21017;-76
2023/06/15 04:59:18;;;;;;;7.07;4.67;;;;;;;;;;4932314;29;20209;-75
2023/06/15 05:01:44;;;;;;;5.20;4.70;;;;;;;;;;4931707;29;20261;-77
2023/06/15 05:04:22;;;;;;;7.30;4.53;;;;;;;;;;4916188;29;20725;-76
2023/06/15 05:06:49;;;;;;;4.97;4.47;;;;;;;;;;4922449;29;20181;-77
2023/06/15 05:09:16;;;;;;;5.97;4.80;;;;;;;;;;4927666;29;20198;-76
2023/06/15 05:11:43;;;;;;;5.57;4.60;;;;;;;;;;4928032;29;20875;-77
2023/06/15 05:14:09;;;;;;;4.77;4.37;;;;;;;;;;4912632;29;20551;-76
2023/06/15 05:16:35;;;;;;;5.13;4.33;;;;;;;;;;4911448;29;20194;-76
2023/06/15 05:19:02;;;;;;;4.97;4.57;;;;;;;;;;4927239;29;20218;-76
2023/06/15 05:21:28;;;;;;;4.93;4.43;;;;;;;;;;4916885;29;20269;-76
2023/06/15 05:23:55;;;;;;;5.33;4.50;;;;;;;;;;4917078;29;20182;-79
2023/06/15 05:26:21;;;;;;;5.40;4.37;;;;;;;;;;4907271;29;20209;-78
2023/06/15 05:28:49;;;;;;;5.10;4.60;;;;;;;;;;4931844;29;20193;-77
2023/06/15 05:31:15;;;;;;;6.67;4.40;;;;;;;;;;4929232;29;20687;-78
2023/06/15 05:33:43;;;;;;;8.23;4.87;;;;;;;;;;4920968;29;20213;-76
2023/06/15 05:36:10;;;;;;;6.33;4.40;;;;;;;;;;4930439;29;20193;-79
2023/06/15 05:38:37;;;;;;;5.20;4.50;;;;;;;;;;4925039;29;20223;-79
2023/06/15 05:41:03;;;;;;;6.07;4.30;;;;;;;;;;4908779;29;20190;-80
2023/06/15 05:43:29;;;;;;;4.87;4.37;;;;;;;;;;4928784;29;20191;-79
2023/06/15 05:45:56;;;;;;;4.87;4.47;;;;;;;;;;4895761;29;20191;-80
2023/06/15 05:48:23;;;;;;;5.63;4.20;;;;;;;;;;4936250;29;20269;-80
2023/06/15 05:50:49;;;;;;;6.00;4.10;;;;;;;;;;4933065;29;20202;-79
2023/06/15 05:53:16;;;;;;;4.90;4.40;;;;;;;;;;4945356;29;20186;-79
2023/06/15 05:55:42;;;;;;;4.87;3.80;;;;;;;;;;4922728;29;20201;-80
2023/06/15 05:58:08;;;;;;;4.40;4.00;;;;;;;;;;4928711;29;20207;-79
2023/06/15 06:00:36;;;;;;;6.47;3.50;;;;;;;;;;4920708;29;20554;-80
2023/06/15 06:03:03;;;;;;;4.73;3.83;;;;;;;;;;4950357;29;20343;-81
2023/06/15 06:05:37;;;;;;;4.30;3.90;;;;;;;;;;4920240;29;20188;-81
2023/06/15 06:08:04;;;;;;;4.33;3.73;;;;;;;;;;4902929;29;20201;-80
2023/06/15 06:10:31;;;;;;;4.97;4.00;;;;;;;;;;4934901;29;20218;-80
2023/06/15 06:13:20;;;;;;;5.53;3.90;;;;;;;;;;4916819;29;20237;-80
2023/06/15 06:15:46;;;;;;;4.20;3.80;;;;;;;;;;4919969;29;20195;-81
2023/06/15 06:18:13;;;;;;;4.37;3.97;;;;;;;;;;4922446;29;20209;-80
2023/06/15 06:20:39;;;;;;;5.30;4.00;;;;;;;;;;4935395;29;20214;-78
2023/06/15 06:23:06;;;;;;;4.00;3.70;;;;;;;;;;4933133;29;20209;-78
2023/06/15 06:25:32;;;;;;;4.37;3.97;;;;;;;;;;4918117;29;20226;-78
2023/06/15 06:27:58;;;;;;;4.10;3.80;;;;;;;;;;4936447;29;20570;-78
2023/06/15 06:30:24;;;;;;;5.10;4.70;;;;;;;;;;4936714;29;20257;-79
2023/06/15 06:32:50;;;;;;;4.93;4.27;;;;;;;;;;4936382;29;20217;-78
2023/06/15 06:35:16;;;;;;;4.83;3.97;;;;;;;;;;4941857;28;20198;-77
2023/06/15 06:37:42;;;;;;;4.13;3.73;;;;;;;;;;4935118;29;20556;-78
2023/06/15 06:40:09;;;;;;;4.80;4.10;;;;;;;;;;4934465;29;20292;-78
2023/06/15 06:42:35;;;;;;;4.40;4.00;;;;;;;;;;4920644;29;20202;-78
2023/06/15 06:45:01;;;;;;;5.70;4.60;;;;;;;;;;4928902;29;20550;-78
2023/06/15 06:47:27;;;;;;;4.20;3.80;;;;;;;;;;4930079;29;20191;-79
2023/06/15 06:49:53;;;;;;;4.50;3.50;;;;;;;;;;4933742;29;20194;-79
2023/06/15 06:52:19;;;;;;;4.90;4.43;;;;;;;;;;4933077;29;20257;-78
2023/06/15 06:54:46;;;;;;;4.80;4.30;;;;;;;;;;4929846;29;20183;-80
2023/06/15 06:57:12;;;;;;;6.53;4.23;;;;;;;;;;4928287;29;20259;-80
2023/06/15 06:59:38;;;;;;;6.40;4.57;;;;;;;;;;4921516;29;20734;-79
2023/06/15 07:02:04;;;;;;;5.20;4.00;;;;;;;;;;4932813;29;20308;-79
2023/06/15 07:04:30;;;;;;;4.60;4.10;;;;;;;;;;4934648;29;20186;-77
2023/06/15 07:06:57;;;;;;;4.13;3.80;;;;;;;;;;4934416;29;20667;-79
2023/06/15 07:09:23;;;;;;;4.77;4.03;;;;;;;;;;4935614;29;20271;-79
2023/06/15 07:11:49;;;;;;;4.27;3.60;;;;;;;;;;4935865;29;20681;-79
2023/06/15 07:14:15;;;;;;;4.00;3.70;;;;;;;;;;4935808;29;20189;-80
2023/06/15 07:16:41;;;;;;;5.17;3.77;;;;;;;;;;4932219;29;20195;-78
2023/06/15 07:19:07;;;;;;;4.10;3.70;;;;;;;;;;4927042;29;20214;-78
2023/06/15 07:21:33;;;;;;;3.80;3.50;;;;;;;;;;4929362;29;20210;-78
2023/06/15 07:24:00;;;;;;;4.23;3.80;;;;;;;;;;4935086;29;20722;-79
2023/06/15 07:26:26;;;;;;;3.90;3.60;;;;;;;;;;4935868;29;20213;-78
2023/06/15 07:28:52;;;;;;;4.33;4.00;;;;;;;;;;4934394;29;20217;-78
2023/06/15 07:31:18;;;;;;;4.67;3.87;;;;;;;;;;4933319;29;20221;-78
2023/06/15 07:33:45;;;;;;;4.20;3.80;;;;;;;;;;4935513;29;20276;-78
2023/06/15 07:36:11;;;;;;;4.13;3.80;;;;;;;;;;4935680;29;20202;-78
2023/06/15 07:38:37;;;;;;;4.07;3.77;;;;;;;;;;4934939;29;20205;-78
2023/06/15 07:41:03;;;;;;;4.10;3.80;;;;;;;;;;4933854;29;20237;-78
2023/06/15 07:43:29;;;;;;;4.97;4.00;;;;;;;;;;4935674;29;20261;-79
2023/06/15 07:45:56;;;;;;;5.67;3.77;;;;;;;;;;4934285;29;20646;-78
2023/06/15 07:48:22;;;;;;;4.47;4.13;;;;;;;;;;4935026;29;20177;-78
2023/06/15 07:50:48;;;;;;;4.57;4.23;;;;;;;;;;4932324;29;20191;-79
2023/06/15 07:53:15;;;;;;;4.17;3.87;;;;;;;;;;4934962;29;20201;-78
2023/06/15 07:55:41;;;;;;;4.57;4.17;;;;;;;;;;4935146;29;20193;-78
2023/06/15 07:58:07;;;;;;;5.43;3.97;;;;;;;;;;4933510;29;20213;-78
2023/06/15 08:00:34;;;;;;;5.40;3.73;;;;;;;;;;4934961;29;20189;-78
2023/06/15 08:03:00;;;;;;;5.50;3.80;;;;;;;;;;4934536;29;20232;-78
2023/06/15 08:05:26;;;;;;;3.90;3.60;;;;;;;;;;4934952;29;20170;-78
2023/06/15 08:07:52;;;;;;;3.83;3.53;;;;;;;;;;4933781;29;20193;-79
2023/06/15 08:10:18;;;;;;;4.10;3.63;;;;;;;;;;4928234;29;20597;-78
2023/06/15 08:12:45;;;;;;;3.80;3.50;;;;;;;;;;4924594;29;20225;-79
2023/06/15 08:15:11;;;;;;;4.70;4.23;;;;;;;;;;4931284;29;20273;-79
2023/06/15 08:17:37;;;;;;;7.17;4.20;;;;;;;;;;4917124;29;20882;-78
2023/06/15 08:20:10;;;;;;;4.83;4.37;;;;;;;;;;4915861;29;20213;-78
2023/06/15 08:22:36;;;;;;;4.07;3.77;;;;;;;;;;4933640;29;20642;-79
2023/06/15 08:25:02;;;;;;;4.80;4.40;;;;;;;;;;4939716;29;20658;-78
2023/06/15 08:27:29;;;;;;;4.30;4.00;;;;;;;;;;4934393;29;20190;-79
2023/06/15 08:29:57;;;;;;;5.83;3.87;;;;;;;;;;4917096;29;20200;-78
2023/06/15 08:32:23;;;;;;;4.57;4.17;;;;;;;;;;4933336;29;20273;-78
2023/06/15 08:34:50;;;;;;;4.57;4.17;;;;;;;;;;4933445;29;20189;-80
2023/06/15 08:37:16;;;;;;;6.20;4.40;;;;;;;;;;4933511;29;20205;-78
2023/06/15 08:39:42;;;;;;;4.43;4.03;;;;;;;;;;4931555;29;20209;-79
2023/06/15 08:42:08;;;;;;;5.10;4.20;;;;;;;;;;4929744;29;20208;-78
2023/06/15 08:44:35;;;;;;;4.27;3.87;;;;;;;;;;4933290;29;20221;-79
2023/06/15 08:47:03;;;;;;;4.47;4.07;;;;;;;;;;4933358;29;20189;-78
2023/06/15 08:49:33;;;;;;;4.60;4.20;;;;;;;;;;4931743;29;20197;-79
2023/06/15 08:52:02;;;;;;;4.43;4.13;;;;;;;;;;4929112;29;20206;-78
2023/06/15 08:54:32;;;;;;;5.30;4.30;;;;;;;;;;4911432;29;20293;-79
2023/06/15 08:56:58;;;;;;;5.43;4.27;;;;;;;;;;4933621;29;20598;-79
2023/06/15 08:59:25;;;;;;;4.47;4.10;;;;;;;;;;4931419;29;20255;-79
2023/06/15 09:01:54;;;;;;;5.80;4.40;;;;;;;;;;4932540;29;20225;-79
2023/06/15 09:04:20;;;;;;;4.70;4.17;;;;;;;;;;4934359;29;20173;-78
2023/06/15 09:06:46;;;;;;;4.20;3.80;;;;;;;;;;4932924;29;20194;-79
2023/06/15 09:09:13;;;;;;;4.13;3.73;;;;;;;;;;4934016;29;20562;-79
2023/06/15 09:11:49;;;;;;;4.33;3.93;;;;;;;;;;4926575;29;20301;-79
2023/06/15 09:14:15;;;;;;;4.13;3.60;;;;;;;;;;4934111;29;20689;-79
2023/06/15 09:16:41;;;;;;;4.40;3.87;;;;;;;;;;4924048;29;20193;-79
2023/06/15 09:19:11;;;;;;;4.60;3.60;;;;;;;;;;4932094;29;20296;-79
2023/06/15 09:21:49;;;;;;;4.17;3.77;;;;;;;;;;4937022;29;20216;-80
2023/06/15 09:24:17;;;;;;;4.50;3.33;;;;;;;;;;4920859;29;20646;-79
2023/06/15 09:26:44;;;;;;;4.37;3.60;;;;;;;;;;4920844;29;20178;-78
2023/06/15 09:29:11;;;;;;;3.70;3.40;;;;;;;;;;4937641;29;20193;-79
2023/06/15 09:31:39;;;;;;;3.80;3.50;;;;;;;;;;4924327;29;20624;-79
2023/06/15 09:34:12;;;;;;;4.70;3.70;;;;;;;;;;4937153;29;20174;-79
2023/06/15 09:36:42;;;;;;;4.53;3.83;;;;;;;;;;4932835;29;20214;-79
2023/06/15 09:39:11;;;;;;;3.77;3.47;;;;;;;;;;4935307;29;20217;-79
2023/06/15 09:41:51;;;;;;;5.80;4.00;;;;;;;;;;4933932;29;20938;-79
2023/06/15 09:44:19;;;;;;;4.30;3.90;;;;;;;;;;4918586;29;20183;-79
2023/06/15 09:46:48;;;;;;;3.60;3.30;;;;;;;;;;4919593;29;20565;-79
2023/06/15 09:49:25;;;;;;;3.70;3.40;;;;;;;;;;4931540;29;20195;-79
2023/06/15 09:51:52;;;;;;;4.37;3.93;;;;;;;;;;4932873;29;20210;-79
2023/06/15 09:54:20;;;;;;;3.90;3.50;;;;;;;;;;4924564;29;20217;-79
2023/06/15 09:56:48;;;;;;;3.67;3.37;;;;;;;;;;4936509;29;20194;-79
2023/06/15 09:59:14;;;;;;;4.00;3.70;;;;;;;;;;4935956;29;20699;-80
2023/06/15 10:01:42;;;;;;;4.30;3.90;;;;;;;;;;4919105;29;20238;-82
2023/06/15 10:04:09;;;;;;;3.60;3.30;;;;;;;;;;4919432;29;20179;-81
2023/06/15 10:06:39;;;;;;;3.90;3.50;;;;;;;;;;4930462;29;20221;-81
2023/06/15 10:09:07;;;;;;;3.83;3.53;;;;;;;;;;4938973;29;20189;-80
2023/06/15 10:11:36;;;;;;;3.57;3.27;;;;;;;;;;4935638;29;20296;-80
2023/06/15 10:14:09;;;;;;;3.47;3.10;;;;;;;;;;4938499;29;20217;-77
2023/06/15 10:16:37;;;;;;;3.47;3.27;;;;;;;;;;4939654;29;20261;-78
2023/06/15 10:19:06;;;;;;;3.70;3.40;;;;;;;;;;4940741;29;20225;-78
2023/06/15 10:21:35;;;;;;;3.40;3.10;;;;;;;;;;4918675;29;20258;-79
2023/06/15 10:24:03;;;;;;;3.43;3.13;;;;;;;;;;4933822;29;20716;-81
2023/06/15 10:26:30;;;;;;;4.03;3.60;;;;;;;;;;4915211;29;20190;-79
2023/06/15 10:29:00;;;;;;;3.07;2.87;;;;;;;;;;4931461;29;20244;-78
2023/06/15 10:31:30;;;;;;;3.50;3.20;;;;;;;;;;4913739;29;20279;-78
2023/06/15 10:33:59;;;;;;;3.53;3.27;;;;;;;;;;4932427;29;20186;-78
2023/06/15 10:36:29;;;;;;;3.57;3.27;;;;;;;;;;4928321;29;20275;-79
2023/06/15 10:38:56;;;;;;;3.80;3.50;;;;;;;;;;4929632;29;20625;-80
2023/06/15 10:41:22;;;;;;;3.50;3.20;;;;;;;;;;4933765;29;20202;-80
2023/06/15 10:44:01;;;;;;;3.53;3.23;;;;;;;;;;4933489;29;20182;-81
2023/06/15 10:46:30;;;;;;;3.70;3.40;;;;;;;;;;4930983;29;20226;-80
2023/06/15 10:49:02;;;;;;;4.43;3.50;;;;;;;;;;4930424;29;20239;-79
2023/06/15 10:51:29;;;;;;;3.97;3.60;;;;;;;;;;4929861;29;20225;-82
2023/06/15 10:53:56;;;;;;;5.23;3.60;;;;;;;;;;4929774;29;20264;-78
2023/06/15 10:56:22;;;;;;;4.20;3.80;;;;;;;;;;4931881;29;20721;-78
2023/06/15 10:58:58;;;;;;;4.20;3.80;;;;;;;;;;4930740;29;20590;-78
2023/06/15 11:01:29;;;;;;;4.37;3.73;;;;;;;;;;4930032;29;20662;-77
2023/06/15 11:03:56;;;;;;;3.87;3.53;;;;;;;;;;4929839;29;20197;-77
2023/06/15 11:06:32;;;;;;;4.97;3.97;;;;;;;;;;4931196;29;20609;-79
2023/06/15 11:09:08;;;;;;;3.70;3.40;;;;;;;;;;4932716;29;20184;-78
2023/06/15 11:11:38;;;;;;;4.03;3.67;;;;;;;;;;4929407;29;20235;-78
2023/06/15 11:14:05;;;;;;;4.10;3.70;;;;;;;;;;4929193;29;20701;-78
2023/06/15 11:16:32;;;;;;;4.10;3.80;;;;;;;;;;4931034;29;20305;-79
2023/06/15 11:18:59;;;;;;;3.97;3.57;;;;;;;;;;4932257;29;20238;-78
2023/06/15 11:21:29;;;;;;;3.93;3.63;;;;;;;;;;4929776;29;20210;-79
2023/06/15 11:23:57;;;;;;;4.50;3.80;;;;;;;;;;4931753;29;20189;-79
2023/06/15 11:26:27;;;;;;;4.30;3.90;;;;;;;;;;4929938;29;20205;-78
2023/06/15 11:28:57;;;;;;;4.40;3.87;;;;;;;;;;4929036;29;20190;-77
2023/06/15 11:31:23;;;;;;;4.30;3.90;;;;;;;;;;4928738;29;20234;-78
2023/06/15 11:33:49;;;;;;;4.30;3.97;;;;;;;;;;4927798;29;20238;-78
2023/06/15 11:36:16;;;;;;;4.40;4.00;;;;;;;;;;4929674;29;20811;-79
2023/06/15 11:38:43;;;;;;;4.23;3.93;;;;;;;;;;4931406;29;20220;-78
2023/06/15 11:41:10;;;;;;;4.57;4.10;;;;;;;;;;4928457;29;20666;-78
2023/06/15 11:43:40;;;;;;;4.60;4.17;;;;;;;;;;4929638;29;20186;-78
2023/06/15 11:46:10;;;;;;;4.70;4.30;;;;;;;;;;4929886;29;20654;-78
2023/06/15 11:48:36;;;;;;;4.50;4.10;;;;;;;;;;4928112;29;20190;-77
2023/06/15 11:51:02;;;;;;;5.70;4.57;;;;;;;;;;4929182;29;20193;-78
2023/06/15 11:53:28;;;;;;;4.50;4.10;;;;;;;;;;4930240;29;20211;-78
2023/06/15 11:55:55;;;;;;;4.30;3.90;;;;;;;;;;4928621;29;20650;-78
2023/06/15 11:58:23;;;;;;;4.80;4.20;;;;;;;;;;4926749;29;20229;-78
2023/06/15 12:00:50;;;;;;;4.67;4.27;;;;;;;;;;4928613;29;20190;-78
2023/06/15 12:03:16;;;;;;;4.10;3.80;;;;;;;;;;4929276;29;20195;-78
2023/06/15 12:05:42;;;;;;;4.43;4.10;;;;;;;;;;4929731;29;20237;-79
2023/06/15 12:08:09;;;;;;;4.40;4.10;;;;;;;;;;4928456;29;20191;-78
2023/06/15 12:10:35;;;;;;;4.90;4.40;;;;;;;;;;4928619;29;20557;-78
2023/06/15 12:13:02;;;;;;;5.47;4.37;;;;;;;;;;4929283;29;20268;-78
2023/06/15 12:15:28;;;;;;;4.50;4.17;;;;;;;;;;4928066;29;20270;-78
2023/06/15 12:17:55;;;;;;;5.83;4.33;;;;;;;;;;4929405;29;20186;-78
2023/06/15 12:20:26;;;;;;;4.00;3.70;;;;;;;;;;4927202;29;20749;-78
2023/06/15 12:22:53;;;;;;;4.53;4.23;;;;;;;;;;4927804;29;20284;-78
2023/06/15 12:25:19;;;;;;;4.63;3.93;;;;;;;;;;4929196;29;20827;-78
2023/06/15 12:27:46;;;;;;;5.27;4.10;;;;;;;;;;4927790;29;20195;-78
2023/06/15 12:30:21;;;;;;;4.60;3.93;;;;;;;;;;4927355;29;20268;-78
2023/06/15 12:32:50;;;;;;;4.40;4.00;;;;;;;;;;4929189;29;20214;-78
2023/06/15 12:35:27;;;;;;;4.10;3.80;;;;;;;;;;4929807;29;20191;-79
2023/06/15 12:37:57;;;;;;;4.90;3.93;;;;;;;;;;4929550;29;20182;-79
2023/06/15 12:40:23;;;;;;;3.93;3.53;;;;;;;;;;4929307;29;20195;-78
2023/06/15 12:42:57;;;;;;;4.03;3.63;;;;;;;;;;4928637;29;20950;-79
2023/06/15 12:45:23;;;;;;;3.80;3.43;;;;;;;;;;4928188;29;20190;-79
2023/06/15 12:47:49;;;;;;;3.83;3.40;;;;;;;;;;4925860;29;20279;-78
2023/06/15 12:50:16;;;;;;;4.43;3.50;;;;;;;;;;4929346;29;20206;-81
2023/06/15 12:52:42;;;;;;;5.07;3.37;;;;;;;;;;4913671;29;20998;-79
2023/06/15 12:55:08;;;;;;;3.80;3.50;;;;;;;;;;4932480;29;20188;-79
2023/06/15 12:57:34;;;;;;;4.57;3.57;;;;;;;;;;4931260;29;20186;-79
2023/06/15 13:00:00;;;;;;;4.50;4.10;;;;;;;;;;4927282;29;20255;-78
2023/06/15 13:02:27;;;;;;;3.90;3.60;;;;;;;;;;4933612;29;20206;-78
2023/06/15 13:04:56;;;;;;;3.90;3.60;;;;;;;;;;4932372;29;20234;-78
2023/06/15 13:07:24;;;;;;;3.97;3.67;;;;;;;;;;4926498;29;20187;-78
2023/06/15 13:09:50;;;;;;;3.43;3.20;;;;;;;;;;4932875;29;20588;-78
2023/06/15 13:12:17;;;;;;;3.47;3.20;;;;;;;;;;4931527;29;20226;-78
2023/06/15 13:14:43;;;;;;;2.90;2.70;;;;;;;;;;4929184;29;20196;-78
2023/06/15 13:17:09;;;;;;;4.67;3.10;;;;;;;;;;4933331;29;20652;-78
2023/06/15 13:19:36;;;;;;;3.07;2.70;;;;;;;;;;4928267;29;20724;-78
2023/06/15 13:22:02;;;;;;;3.13;2.90;;;;;;;;;;4902993;29;20299;-78
2023/06/15 13:24:28;;;;;;;3.50;3.20;;;;;;;;;;4922716;29;20184;-78
2023/06/15 13:26:57;;;;;;;3.10;2.90;;;;;;;;;;4931599;29;20191;-78
2023/06/15 13:29:23;;;;;;;3.53;3.07;;;;;;;;;;4931035;29;20611;-78
2023/06/15 13:31:50;;;;;;;3.20;3.00;;;;;;;;;;4918767;29;20221;-78
2023/06/15 13:34:16;;;;;;;5.27;3.23;;;;;;;;;;4929944;29;20235;-78
2023/06/15 13:36:42;;;;;;;3.60;3.30;;;;;;;;;;4922575;29;20707;-78
2023/06/15 13:39:09;;;;;;;3.00;2.80;;;;;;;;;;4933145;29;20244;-78
2023/06/15 13:41:35;;;;;;;3.87;2.77;;;;;;;;;;4933499;29;20235;-78
2023/06/15 13:44:01;;;;;;;3.00;2.80;;;;;;;;;;4919253;29;20195;-78
2023/06/15 13:46:30;;;;;;;3.83;2.87;;;;;;;;;;4898354;29;20725;-78
2023/06/15 13:48:56;;;;;;;3.10;2.90;;;;;;;;;;4917757;29;20218;-78
2023/06/15 13:51:23;;;;;;;4.03;2.70;;;;;;;;;;4933317;29;20272;-78
2023/06/15 13:53:49;;;;;;;3.33;3.10;;;;;;;;;;4933603;29;20190;-78
2023/06/15 13:56:15;;;;;;;2.90;2.70;;;;;;;;;;4933794;29;20189;-78
2023/06/15 13:58:41;;;;;;;3.03;2.67;;;;;;;;;;4928588;29;20637;-77
2023/06/15 14:01:07;;;;;;;2.55;2.35;;;;;;;;;;4928685;29;20197;-78
2023/06/15 14:03:33;;;;;;;2.40;2.20;;;;;;;;;;4934084;29;20212;-80
2023/06/15 14:06:00;;;;;;;2.85;2.65;;;;;;;;;;4933521;29;20196;-81
2023/06/15 14:08:26;;;;;;;2.90;2.70;;;;;;;;;;4925881;29;20201;-77
2023/06/15 14:10:52;;;;;;;3.10;2.75;;;;;;;;;;4926500;29;20277;-78
2023/06/15 14:13:18;;;;;;;2.92;2.60;;;;;;;;;;4936861;29;20269;-78
2023/06/15 14:15:44;;;;;;;3.22;2.92;;;;;;;;;;4937095;29;20197;-78
2023/06/15 14:18:10;;;;;;;3.40;3.10;;;;;;;;;;4937000;29;20263;-78
2023/06/15 14:20:36;;;;;;;3.10;2.80;;;;;;;;;;4935517;29;20703;-78
2023/06/15 14:23:03;;;;;;;3.40;3.20;;;;;;;;;;4931114;29;20547;-78
2023/06/15 14:25:29;;;;;;;4.00;3.20;;;;;;;;;;4926205;29;20318;-78
2023/06/15 14:27:55;;;;;;;4.00;3.60;;;;;;;;;;4943674;28;20189;-78
2023/06/15 14:30:21;;;;;;;3.83;3.20;;;;;;;;;;4932836;29;20207;-78
2023/06/15 14:32:47;;;;;;;3.40;3.10;;;;;;;;;;4929564;29;20204;-77
2023/06/15 14:35:14;;;;;;;3.40;3.10;;;;;;;;;;4936679;29;20197;-77
2023/06/15 14:37:40;;;;;;;4.33;3.23;;;;;;;;;;4922120;29;20585;-77
2023/06/15 14:40:06;;;;;;;3.10;2.90;;;;;;;;;;4917849;29;20209;-77
2023/06/15 14:42:33;;;;;;;3.13;2.93;;;;;;;;;;4935783;29;20685;-77
2023/06/15 14:44:59;;;;;;;4.73;3.50;;;;;;;;;;4935206;29;20194;-77